Time;durP1;ratioP1;P1;durP2;ratioP2;P2;SDS_P1;SDS_P2;PMS_P1;PMS_P2;Temp;Humidity;BMP_temperature;BMP_pressure;BME280_temperature;BME280_humidity;BME280_pressure;Samples;Min_cycle;Max_cycle;Signal;HPM_P1;HPM_P2
2022/11/05 00:09:32;;;;;;;;;63.67;49.00;;;;;11.37;100.00;98772.63;6309797;20;3625272;-78
2022/11/05 00:17:47;;;;;;;;;63.33;49.33;;;;;11.29;100.00;98774.19;6270312;20;3610705;-75
2022/11/05 00:20:17;;;;;;;;;62.00;49.00;;;;;11.26;100.00;98785.19;6304754;20;3607532;-74
2022/11/05 00:25:34;;;;;;;;;59.00;47.33;;;;;11.40;100.00;98779.56;6310787;20;3612889;-69
2022/11/05 00:28:03;;;;;;;;;65.00;51.00;;;;;11.40;100.00;98793.91;6276722;20;3627330;-72
2022/11/05 00:30:32;;;;;;;;;63.33;49.00;;;;;11.36;100.00;98775.44;6273988;20;3618106;-71
2022/11/05 00:33:02;;;;;;;;;67.25;50.25;;;;;11.34;100.00;98777.38;6277867;20;3637820;-73
2022/11/05 00:35:31;;;;;;;;;71.50;54.25;;;;;11.35;100.00;98773.75;6307650;20;3641975;-69
2022/11/05 00:38:01;;;;;;;;;66.50;50.25;;;;;11.34;100.00;98774.69;6306101;20;3639942;-74
2022/11/05 00:40:29;;;;;;;;;74.00;54.67;;;;;11.34;100.00;98777.38;6307461;20;3635734;-75
2022/11/05 00:45:45;;;;;;;;;67.33;51.00;;;;;11.33;100.00;98768.47;6274823;20;3599281;-71
2022/11/05 00:51:07;;;;;;;;;73.67;56.33;;;;;11.32;100.00;98769.47;6270573;20;3617039;-68
2022/11/05 00:53:35;;;;;;;;;72.00;55.33;;;;;11.30;100.00;98765.19;6303583;20;3636721;-72
2022/11/05 00:56:04;;;;;;;;;71.67;53.33;;;;;11.35;100.00;98763.00;6275505;20;3631545;-75
2022/11/05 00:58:33;;;;;;;;;73.00;57.00;;;;;11.25;100.00;98767.38;6271751;20;3630525;-69
2022/11/05 01:01:05;;;;;;;;;80.00;58.25;;;;;11.30;100.00;98765.19;6292920;20;3661828;-69
2022/11/05 01:03:37;;;;;;;;;75.33;55.00;;;;;11.27;100.00;98770.78;6273198;20;3656530;-71
2022/11/05 01:06:10;;;;;;;;;70.00;53.33;;;;;11.33;100.00;98765.78;6270241;20;3634784;-71
2022/11/05 01:08:43;;;;;;;;;75.25;54.75;;;;;11.26;100.00;98763.69;6300707;20;4407519;-71
2022/11/05 01:11:35;;;;;;;;;73.75;56.00;;;;;11.34;100.00;98782.75;6304036;20;3634763;-72
2022/11/05 01:14:10;;;;;;;;;73.75;54.25;;;;;11.42;100.00;98786.53;6302647;20;3641937;-69
2022/11/05 01:16:40;;;;;;;;;72.00;55.67;;;;;11.35;100.00;98784.50;6301354;20;3637306;-71
2022/11/05 01:19:10;;;;;;;;;71.00;54.00;;;;;11.35;100.00;98779.13;6271461;20;3630631;-71
2022/11/05 01:21:40;;;;;;;;;72.00;54.00;;;;;11.20;100.00;98771.28;6272198;20;3632674;-70
2022/11/05 01:24:10;;;;;;;;;72.00;56.00;;;;;11.19;100.00;98774.94;6304857;20;3626917;-70
2022/11/05 01:26:38;;;;;;;;;70.33;53.00;;;;;11.24;100.00;98777.25;6272827;20;3621072;-68
2022/11/05 01:29:09;;;;;;;;;72.00;57.00;;;;;11.32;100.00;98773.94;6271375;20;3630081;-68
2022/11/05 01:31:38;;;;;;;;;70.00;53.33;;;;;11.30;100.00;98773.25;6269807;20;3621114;-70
2022/11/05 01:34:07;;;;;;;;;72.33;54.67;;;;;11.29;100.00;98771.50;6269926;20;3621242;-69
2022/11/05 01:36:35;;;;;;;;;69.67;54.00;;;;;11.25;100.00;98762.00;6274918;20;3621172;-68
2022/11/05 01:39:05;;;;;;;;;67.67;51.33;;;;;11.21;100.00;98762.22;6269339;20;3628492;-71
2022/11/05 01:41:35;;;;;;;;;67.50;52.25;;;;;11.18;100.00;98757.09;6304061;20;3634743;-71
2022/11/05 01:44:04;;;;;;;;;68.33;51.67;;;;;11.21;100.00;98764.91;6300231;20;3625287;-70
2022/11/05 01:46:40;;;;;;;;;67.67;51.67;;;;;11.20;100.00;98776.66;6271990;20;3624227;-70
2022/11/05 01:49:30;;;;;;;;;69.33;54.00;;;;;11.14;100.00;98770.91;6266245;20;3617022;-70
2022/11/05 01:52:04;;;;;;;;;67.67;52.33;;;;;11.14;100.00;98771.75;6300855;20;3617969;-71
2022/11/05 01:54:34;;;;;;;;;62.67;49.67;;;;;11.14;100.00;98761.00;6301693;20;3624217;-72
2022/11/05 01:57:09;;;;;;;;;64.67;49.33;;;;;11.20;100.00;98765.03;6269667;20;3645105;-71
2022/11/05 01:59:45;;;;;;;;;64.67;51.00;;;;;11.15;100.00;98765.41;6297739;20;3619149;-70
2022/11/05 02:02:14;;;;;;;;;67.67;53.67;;;;;11.18;100.00;98767.84;6270129;20;3633617;-70
2022/11/05 02:04:53;;;;;;;;;62.67;49.67;;;;;11.09;100.00;98778.47;6271542;20;3624233;-70
2022/11/05 02:07:26;;;;;;;;;62.67;48.67;;;;;11.10;100.00;98775.66;6266343;20;3627482;-70
2022/11/05 02:10:09;;;;;;;;;61.00;47.00;;;;;11.05;100.00;98777.84;6266366;20;3637783;-71
2022/11/05 02:12:44;;;;;;;;;53.67;43.33;;;;;11.06;100.00;98774.19;6300099;20;3613749;-69
2022/11/05 02:15:44;;;;;;;;;59.67;43.33;;;;;11.12;100.00;98773.72;6262744;20;3637876;-70
2022/11/05 02:18:45;;;;;;;;;51.67;43.33;;;;;11.05;100.00;98780.53;6293728;20;3606505;-70
2022/11/05 02:21:24;;;;;;;;;51.00;42.00;;;;;10.97;100.00;98780.28;6301413;20;3595068;-70
2022/11/05 02:24:42;;;;;;;;;54.00;44.00;;;;;10.96;100.00;98778.56;6267597;20;3610743;-70
2022/11/05 02:28:35;;;;;;;;;54.33;42.67;;;;;10.90;100.00;98779.91;6300794;20;3629545;-70
2022/11/05 02:31:39;;;;;;;;;48.33;38.33;;;;;10.88;100.00;98781.00;6263041;20;2854564;-70
2022/11/05 02:34:36;;;;;;;;;39.00;34.33;;;;;10.79;100.00;98779.88;6298401;20;3610737;-69
2022/11/05 02:37:39;;;;;;;;;56.00;44.33;;;;;10.77;100.00;98780.00;6268244;20;3610731;-70
2022/11/05 02:40:40;;;;;;;;;52.33;41.00;;;;;10.78;100.00;98780.84;6299758;20;3592021;-70
2022/11/05 02:43:34;;;;;;;;;52.00;39.33;;;;;10.74;100.00;98774.00;6265521;20;3617962;-70
2022/11/05 02:46:29;;;;;;;;;44.50;37.50;;;;;10.81;100.00;98774.38;6297632;20;2849359;-70
2022/11/05 02:49:24;;;;;;;;;45.00;38.00;;;;;10.64;100.00;98775.69;6268424;20;2855696;-68
2022/11/05 02:51:58;;;;;;;;;43.50;36.00;;;;;10.63;100.00;98756.03;6298912;20;2845078;-71
2022/11/05 02:54:42;;;;;;;;;47.67;36.00;;;;;10.51;100.00;98756.97;6267741;20;2858698;-70
2022/11/05 02:57:11;;;;;;;;;49.33;37.00;;;;;10.67;100.00;98762.88;6300547;20;3600260;-70
2022/11/05 02:59:40;;;;;;;;;42.00;35.00;;;;;10.48;100.00;98762.59;6270912;20;3590904;-70
2022/11/05 03:02:09;;;;;;;;;32.00;30.67;;;;;10.51;100.00;98773.09;6265928;20;2857658;-72
2022/11/05 03:04:38;;;;;;;;;29.67;28.00;;;;;10.45;100.00;98769.03;6296065;20;3587770;-70
2022/11/05 03:07:40;;;;;;;;;36.67;28.67;;;;;10.46;100.00;98786.84;6267587;20;3611788;-71
2022/11/05 03:10:45;;;;;;;;;31.00;26.50;;;;;10.45;100.00;98786.94;6300417;20;2837959;-72
2022/11/05 03:13:59;;;;;;;;;32.33;29.67;;;;;10.41;100.00;98801.59;6264569;20;2844005;-70
2022/11/05 03:16:35;;;;;;;;;36.67;30.67;;;;;10.39;100.00;98812.41;6295149;20;3605466;-71
2022/11/05 03:19:37;;;;;;;;;28.00;25.00;;;;;10.18;100.00;98819.34;6265738;20;2852358;-71
2022/11/05 03:22:27;;;;;;;;;25.00;23.50;;;;;10.08;100.00;98827.22;6265947;20;2831588;-71
2022/11/05 03:25:07;;;;;;;;;17.33;15.67;;;;;9.82;100.00;98824.63;6266296;20;3562362;-72
2022/11/05 03:27:40;;;;;;;;;18.00;16.00;;;;;9.63;100.00;98818.88;6263032;20;2487831;-71
2022/11/05 03:30:13;;;;;;;;;13.00;13.00;;;;;9.66;100.00;98824.00;6269156;20;3537881;-73
2022/11/05 03:32:52;;;;;;;;;15.33;14.00;;;;;9.42;100.00;98823.94;6300832;20;3545170;-71
2022/11/05 03:35:33;;;;;;;;;15.00;13.67;;;;;9.32;100.00;98821.06;6272956;20;3545205;-71
2022/11/05 03:38:30;;;;;;;;;14.33;12.67;;;;;9.38;100.00;98836.69;6270841;20;3534780;-72
2022/11/05 03:41:05;;;;;;;;;13.67;13.00;;;;;9.29;100.00;98836.47;6302544;20;3526293;-73
2022/11/05 03:43:40;;;;;;;;;14.67;14.00;;;;;9.20;100.00;98837.97;6299826;20;3535634;-69
2022/11/05 03:46:44;;;;;;;;;12.50;11.00;;;;;9.20;100.00;98832.63;6301467;20;2792087;-72
2022/11/05 03:49:24;;;;;;;;;12.00;12.00;;;;;9.20;100.00;98841.50;6271830;20;3528355;-70
2022/11/05 03:52:13;;;;;;;;;12.50;12.00;;;;;9.30;100.00;98844.41;6307535;20;2789853;-71
2022/11/05 03:54:42;;;;;;;;;13.33;12.67;;;;;9.15;100.00;98840.97;6267557;20;2786767;-68
2022/11/05 03:57:31;;;;;;;;;13.33;11.67;;;;;9.28;100.00;98843.66;6301853;20;2790962;-70
2022/11/05 03:59:59;;;;;;;;;11.50;10.00;;;;;9.20;100.00;98846.88;6303873;20;2780622;-72
2022/11/05 04:02:30;;;;;;;;;12.80;11.80;;;;;9.25;100.00;98851.91;6294036;20;2812895;-69
2022/11/05 04:05:00;;;;;;;;;10.00;10.00;;;;;9.23;100.00;98845.78;6298841;20;2781656;-74
2022/11/05 04:13:22;;;;;;;;;13.00;13.00;;;;;9.30;100.00;98840.88;6301444;20;2812841;-70
2022/11/05 04:13:32;;;;;;;;;14.50;13.00;;;;;9.26;100.00;98850.94;6272853;20;2817052;-69
2022/11/05 04:18:47;;;;;;;;;13.00;11.00;;;;;9.30;100.00;98855.13;6281429;20;2789878;-72
2022/11/05 04:24:07;;;;;;;;;11.00;10.00;;;;;9.23;100.00;98843.13;6275153;20;2780486;-69
2022/11/05 04:26:42;;;;;;;;;11.00;10.00;;;;;9.05;100.00;98829.19;6268920;20;2785778;-70
2022/11/05 04:31:58;;;;;;;;;11.00;10.00;;;;;9.27;100.00;98828.56;6273369;20;2794097;-68
2022/11/05 04:34:26;;;;;;;;;11.00;10.00;;;;;9.18;100.00;98829.19;6270035;20;2793269;-71
2022/11/05 04:36:54;;;;;;;;;9.00;8.00;;;;;9.10;100.00;98810.13;6275547;20;2749301;-72
2022/11/05 04:39:22;;;;;;;;;8.00;8.00;;;;;9.14;100.00;98809.81;6274345;20;2737826;-68
2022/11/05 04:41:51;;;;;;;;;9.00;8.60;;;;;9.18;100.00;98813.97;6293420;20;2759757;-69
2022/11/05 04:44:19;;;;;;;;;5.50;5.50;;;;;9.10;100.00;98796.72;6300180;20;2735804;-69
2022/11/05 04:46:46;;;;;;;;;7.00;6.00;;;;;9.16;100.00;98802.53;6278091;20;2737809;-72
2022/11/05 04:49:14;;;;;;;;;8.00;8.00;;;;;9.16;100.00;98815.03;6276054;20;2733686;-69
2022/11/05 04:51:42;;;;;;;;;11.00;9.00;;;;;9.18;100.00;98803.25;6270450;20;2752338;-71
2022/11/05 04:54:10;;;;;;;;;7.50;6.50;;;;;9.08;100.00;98809.38;6273322;20;2744049;-74
2022/11/05 04:56:37;;;;;;;;;10.00;7.00;;;;;9.15;100.00;98814.19;6268919;20;2767496;-72
2022/11/05 04:59:09;;;;;;;;;10.43;10.00;;;;;9.04;100.00;98808.72;6317387;20;1800381;-75
2022/11/05 05:01:38;;;;;;;;;10.80;8.60;;;;;9.15;100.00;98811.50;6321775;20;2752376;-69
2022/11/05 05:04:08;;;;;;;;;11.00;9.80;;;;;9.10;100.00;98820.84;6329336;20;2783627;-70
2022/11/05 05:06:37;;;;;;;;;10.50;10.50;;;;;9.22;100.00;98818.16;6261605;20;2792048;-77
2022/11/05 05:09:05;;;;;;;;;12.00;11.00;;;;;9.18;100.00;98823.84;6273161;20;2788824;-71
2022/11/05 05:11:32;;;;;;;;;13.00;11.00;;;;;9.27;100.00;98828.56;6268052;20;2782669;-68
2022/11/05 05:14:01;;;;;;;;;12.00;12.00;;;;;9.04;100.00;98822.13;6264798;20;2794334;-69
2022/11/05 05:16:28;;;;;;;;;15.00;14.00;;;;;9.11;100.00;98830.56;6303330;20;2804609;-72
2022/11/05 05:18:58;;;;;;;;;10.20;10.20;;;;;9.10;100.00;98823.50;6291116;20;2792140;-71
2022/11/05 05:21:39;;;;;;;;;19.33;13.67;;;;;8.99;100.00;98830.47;6271258;20;3555583;-70
2022/11/05 05:24:17;;;;;;;;;14.00;11.50;;;;;9.14;100.00;98833.06;6289898;20;2804477;-69
2022/11/05 05:26:49;;;;;;;;;18.00;18.00;;;;;9.21;100.00;98835.19;6270424;20;2820101;-71
2022/11/05 05:29:18;;;;;;;;;18.50;14.00;;;;;9.08;100.00;98828.97;6271212;20;2812795;-70
2022/11/05 05:31:47;;;;;;;;;15.00;15.00;;;;;9.13;100.00;98840.22;6270018;20;3540991;-71
2022/11/05 05:34:15;;;;;;;;;14.00;14.00;;;;;9.16;100.00;98839.13;6296458;20;3550300;-71
2022/11/05 05:36:45;;;;;;;;;10.20;10.20;;;;;9.16;100.00;98836.47;6295834;20;2788814;-72
2022/11/05 05:39:13;;;;;;;;;22.50;21.00;;;;;9.19;100.00;98839.81;6271469;20;2828392;-68
2022/11/05 05:41:42;;;;;;;;;16.67;16.67;;;;;9.17;100.00;98832.84;6266363;20;2824288;-73
2022/11/05 05:44:10;;;;;;;;;18.33;16.33;;;;;9.23;100.00;98843.13;6301246;20;3548333;-71
2022/11/05 05:46:38;;;;;;;;;11.50;11.50;;;;;9.27;100.00;98833.91;6264092;20;2794273;-68
2022/11/05 05:49:10;;;;;;;;;11.67;10.00;;;;;9.10;100.00;98835.06;6269718;20;2789928;-71
2022/11/05 05:51:39;;;;;;;;;14.00;10.50;;;;;9.29;100.00;98840.00;6303679;20;2797201;-73
2022/11/05 05:54:09;;;;;;;;;16.50;15.00;;;;;9.29;100.00;98837.31;6271370;20;2812888;-70
2022/11/05 05:56:38;;;;;;;;;13.40;13.00;;;;;9.31;100.00;98840.75;6292278;20;2806554;-71
2022/11/05 05:59:06;;;;;;;;;13.00;11.00;;;;;9.38;100.00;98834.00;6268487;20;2789972;-72
2022/11/05 06:01:36;;;;;;;;;9.80;9.80;;;;;9.34;100.00;98848.56;6292496;20;2769152;-69
2022/11/05 06:04:05;;;;;;;;;10.67;10.67;;;;;9.25;100.00;98856.41;6269810;20;3518103;-75
2022/11/05 06:06:33;;;;;;;;;12.00;12.00;;;;;9.36;100.00;98851.16;6304803;20;2799247;-69
2022/11/05 06:09:01;;;;;;;;;10.50;10.50;;;;;9.35;100.00;98862.84;6268641;20;2777434;-69
2022/11/05 06:11:29;;;;;;;;;12.00;11.00;;;;;9.34;100.00;98872.69;6270062;20;2788900;-71
2022/11/05 06:13:57;;;;;;;;;10.00;10.00;;;;;9.16;100.00;98873.97;6273249;20;2795078;-70
2022/11/05 06:16:26;;;;;;;;;11.67;10.00;;;;;9.29;100.00;98884.69;6268964;20;2794041;-71
2022/11/05 06:18:56;;;;;;;;;11.60;11.20;;;;;9.26;100.00;98885.75;6326892;20;2786835;-71
2022/11/05 06:21:23;;;;;;;;;12.00;10.50;;;;;9.29;100.00;98896.25;6272035;20;2781629;-70
2022/11/05 06:23:51;;;;;;;;;14.00;10.00;;;;;9.15;100.00;98894.53;6271788;20;2788845;-72
2022/11/05 06:26:20;;;;;;;;;14.50;12.00;;;;;9.23;100.00;98908.25;6295060;20;1875369;-69
2022/11/05 06:28:48;;;;;;;;;9.00;9.00;;;;;9.23;100.00;98912.75;6272542;20;2773871;-68
2022/11/05 06:31:15;;;;;;;;;12.00;12.00;;;;;9.15;100.00;98915.94;6267705;20;2786849;-71
2022/11/05 06:33:44;;;;;;;;;13.67;13.67;;;;;9.17;100.00;98918.53;6267141;20;3531514;-70
2022/11/05 06:36:17;;;;;;;;;15.00;13.00;;;;;9.25;100.00;98913.50;6296343;20;2808655;-69
2022/11/05 06:38:46;;;;;;;;;15.33;14.00;;;;;9.35;100.00;98906.56;6266612;20;3533756;-71
2022/11/05 06:41:17;;;;;;;;;19.67;15.33;;;;;9.34;100.00;98915.53;6262687;20;3534656;-69
2022/11/05 06:43:46;;;;;;;;;34.67;30.00;;;;;9.37;100.00;98920.72;6262010;20;2865030;-68
2022/11/05 06:46:42;;;;;;;;;24.50;20.50;;;;;9.15;100.00;98921.31;6292274;20;2832728;-68
2022/11/05 06:49:35;;;;;;;;;21.00;20.00;;;;;9.21;100.00;98920.03;6268312;20;2822268;-66
2022/11/05 06:52:03;;;;;;;;;21.00;15.00;;;;;9.14;100.00;98919.59;6269617;20;2821098;-69
2022/11/05 06:54:32;;;;;;;;;23.67;16.67;;;;;9.17;100.00;98915.88;6265929;20;3566927;-67
2022/11/05 06:57:00;;;;;;;;;21.00;19.00;;;;;9.29;100.00;98916.81;6265354;20;2831629;-70
2022/11/05 06:59:29;;;;;;;;;25.00;23.00;;;;;9.25;100.00;98916.19;6270651;20;2837853;-71
2022/11/05 07:01:58;;;;;;;;;19.00;19.00;;;;;9.40;100.00;98931.22;6264619;20;2831518;-67
2022/11/05 07:04:27;;;;;;;;;27.00;26.00;;;;;9.41;100.00;98930.25;6268667;20;2851417;-70
2022/11/05 07:07:02;;;;;;;;;36.67;31.00;;;;;9.29;100.00;98924.88;6273014;20;3603390;-70
2022/11/05 07:09:30;;;;;;;;;21.33;21.33;;;;;9.48;100.00;98935.16;6310299;20;3583617;-72
2022/11/05 07:11:59;;;;;;;;;21.00;16.00;;;;;9.41;100.00;98932.91;6304445;20;3565007;-68
2022/11/05 07:14:27;;;;;;;;;21.00;21.00;;;;;9.29;100.00;98928.41;6276691;20;2835710;-70
2022/11/05 07:16:57;;;;;;;;;19.50;19.50;;;;;9.48;100.00;98938.72;6270641;20;2500312;-67
2022/11/05 07:19:25;;;;;;;;;19.00;17.00;;;;;9.41;100.00;98932.06;6271220;20;2496122;-70
2022/11/05 07:21:53;;;;;;;;;20.00;20.00;;;;;9.49;100.00;98935.06;6274366;20;2829465;-69
2022/11/05 07:24:22;;;;;;;;;17.00;16.00;;;;;9.55;100.00;98921.25;6275094;20;2824299;-68
2022/11/05 07:26:51;;;;;;;;;20.00;20.00;;;;;9.36;100.00;98928.84;6271705;20;3556615;-68
2022/11/05 07:29:20;;;;;;;;;25.00;20.50;;;;;9.51;100.00;98932.31;6271039;20;2841987;-70
2022/11/05 07:31:48;;;;;;;;;23.50;21.50;;;;;9.62;100.00;98929.72;6267793;20;2846172;-68
2022/11/05 07:34:16;;;;;;;;;15.00;15.00;;;;;9.63;100.00;98929.59;6268395;20;2500392;-68
2022/11/05 07:36:45;;;;;;;;;28.00;21.50;;;;;9.67;100.00;98932.94;6271355;20;2848210;-69
2022/11/05 07:39:14;;;;;;;;;14.67;14.33;;;;;9.73;100.00;98935.19;6270553;20;3529430;-69
2022/11/05 07:41:42;;;;;;;;;16.00;16.00;;;;;9.82;100.00;98945.28;6267194;20;2819022;-68
2022/11/05 07:44:13;;;;;;;;;19.50;19.00;;;;;9.70;100.00;98953.31;6267587;20;2835695;-69
2022/11/05 07:46:41;;;;;;;;;19.00;19.00;;;;;9.64;100.00;98943.88;6267208;20;2828394;-68
2022/11/05 07:49:10;;;;;;;;;14.33;13.33;;;;;9.76;100.00;98943.00;6268740;20;3548226;-68
2022/11/05 07:51:41;;;;;;;;;19.00;18.00;;;;;9.81;100.00;98940.00;6297895;20;2494193;-68
2022/11/05 07:54:10;;;;;;;;;21.00;16.50;;;;;9.85;100.00;98947.72;6269306;20;2847283;-71
2022/11/05 07:56:39;;;;;;;;;18.00;18.00;;;;;9.84;100.00;98951.34;6269691;20;2835731;-69
2022/11/05 07:59:07;;;;;;;;;25.33;21.00;;;;;10.08;100.00;98950.59;6273885;20;3574203;-69
2022/11/05 08:01:35;;;;;;;;;17.00;17.00;;;;;9.81;100.00;98948.06;6265600;20;2494161;-70
2022/11/05 08:04:04;;;;;;;;;16.67;14.33;;;;;9.92;100.00;98956.19;6271106;20;3532589;-68
2022/11/05 08:06:32;;;;;;;;;14.50;14.50;;;;;9.80;100.00;98949.88;6303759;20;2500276;-72
2022/11/05 08:09:01;;;;;;;;;19.67;16.00;;;;;9.94;100.00;98956.09;6271940;20;3564888;-69
2022/11/05 08:11:29;;;;;;;;;18.50;18.50;;;;;9.93;100.00;98959.75;6273912;20;2832698;-69
2022/11/05 08:13:56;;;;;;;;;16.50;16.00;;;;;9.82;100.00;98966.72;6271573;20;2500368;-69
2022/11/05 08:16:25;;;;;;;;;23.50;22.50;;;;;10.13;100.00;98969.91;6266034;20;2844112;-69
2022/11/05 08:18:59;;;;;;;;;17.67;17.00;;;;;9.85;100.00;98969.19;6271839;20;2829446;-69
2022/11/05 08:21:28;;;;;;;;;20.50;17.00;;;;;10.00;100.00;98969.91;6304017;20;2831562;-68
2022/11/05 08:23:57;;;;;;;;;26.00;24.33;;;;;10.04;100.00;98966.06;6273305;20;3582549;-71
2022/11/05 08:26:26;;;;;;;;;28.67;27.00;;;;;10.05;100.00;98970.44;6270664;20;3601295;-71
2022/11/05 08:28:55;;;;;;;;;25.00;21.50;;;;;10.06;100.00;98971.31;6304282;20;2839950;-71
2022/11/05 08:31:24;;;;;;;;;23.00;21.00;;;;;9.96;100.00;98964.91;6265640;20;2842077;-71
2022/11/05 08:33:53;;;;;;;;;15.00;15.00;;;;;10.17;100.00;98963.38;6269737;20;3550281;-67
2022/11/05 08:36:28;;;;;;;;;20.00;20.00;;;;;10.16;100.00;98967.00;6270894;20;2496153;-68
2022/11/05 08:38:56;;;;;;;;;21.00;17.50;;;;;10.13;100.00;98964.53;6269216;20;2500299;-70
2022/11/05 08:41:25;;;;;;;;;16.33;14.67;;;;;10.23;100.00;98968.28;6270551;20;3546099;-68
2022/11/05 08:43:57;;;;;;;;;23.00;21.00;;;;;10.14;100.00;98973.44;6270233;20;2835702;-69
2022/11/05 08:46:26;;;;;;;;;19.50;17.50;;;;;10.29;100.00;98977.75;6269304;20;2835788;-68
2022/11/05 08:48:54;;;;;;;;;31.00;26.00;;;;;10.17;100.00;98971.41;6271904;20;2850282;-68
2022/11/05 08:51:23;;;;;;;;;24.00;22.00;;;;;10.12;100.00;98970.88;6271666;20;2854445;-68
2022/11/05 08:53:52;;;;;;;;;26.00;24.00;;;;;10.12;100.00;98978.94;6267177;20;2838888;-70
2022/11/05 08:56:22;;;;;;;;;23.50;20.50;;;;;9.88;100.00;98982.38;6269600;20;2839992;-68
2022/11/05 08:58:50;;;;;;;;;24.00;18.50;;;;;10.11;100.00;98985.28;6269405;20;2832666;-68
2022/11/05 09:01:18;;;;;;;;;22.50;20.00;;;;;10.03;100.00;98992.97;6269589;20;2835764;-70
2022/11/05 09:03:50;;;;;;;;;26.50;24.00;;;;;10.00;100.00;98990.50;6271253;20;2831657;-70
2022/11/05 09:06:19;;;;;;;;;27.00;24.00;;;;;10.03;100.00;98987.59;6269926;20;2840367;-69
2022/11/05 09:08:47;;;;;;;;;20.00;18.50;;;;;9.97;100.00;99004.13;6265137;20;2481645;-68
2022/11/05 09:11:17;;;;;;;;;26.00;25.00;;;;;10.13;100.00;99002.09;6265144;20;2835172;-69
2022/11/05 09:13:45;;;;;;;;;31.00;25.50;;;;;10.02;100.00;99000.16;6266850;20;2841978;-69
2022/11/05 09:16:24;;;;;;;;;33.33;29.00;;;;;10.32;100.00;99004.34;6267000;20;3579515;-68
2022/11/05 09:18:54;;;;;;;;;29.00;26.33;;;;;10.11;100.00;99001.38;6270589;20;3590038;-70
2022/11/05 09:21:24;;;;;;;;;39.67;35.00;;;;;10.22;100.00;99004.13;6263496;20;2862834;-70
2022/11/05 09:23:52;;;;;;;;;42.33;35.00;;;;;10.16;100.00;99004.53;6297356;20;3600306;-69
2022/11/05 09:26:22;;;;;;;;;30.00;27.00;;;;;10.25;100.00;99003.06;6266048;20;2860818;-68
2022/11/05 09:28:51;;;;;;;;;21.33;19.67;;;;;10.40;100.00;99009.16;6303815;20;3579465;-69
2022/11/05 09:31:20;;;;;;;;;20.00;16.50;;;;;10.57;100.00;99014.19;6294349;20;2826418;-69
2022/11/05 09:33:49;;;;;;;;;16.67;15.00;;;;;10.61;100.00;99012.13;6271958;20;3540879;-68
2022/11/05 09:36:18;;;;;;;;;50.33;41.33;;;;;10.90;100.00;99018.06;6305306;20;3594025;-69
2022/11/05 09:38:45;;;;;;;;;25.50;22.50;;;;;11.12;100.00;99018.19;6270627;20;2500522;-69
2022/11/05 09:41:36;;;;;;;;;15.50;15.00;;;;;11.23;100.00;99014.69;6271774;20;2802372;-68
2022/11/05 09:44:25;;;;;;;;;17.50;16.50;;;;;11.19;100.00;99018.59;6272775;20;2828449;-68
2022/11/05 09:47:01;;;;;;;;;15.00;15.00;;;;;11.38;100.00;99020.75;6268988;20;3535663;-70
2022/11/05 09:49:45;;;;;;;;;17.50;15.00;;;;;11.31;100.00;99023.03;6270014;20;2487793;-64
2022/11/05 09:52:30;;;;;;;;;12.33;12.33;;;;;10.86;100.00;99024.63;6269974;20;2799412;-68
2022/11/05 09:55:01;;;;;;;;;14.67;14.67;;;;;11.08;100.00;99024.75;6297032;20;3533626;-70
2022/11/05 09:57:49;;;;;;;;;11.50;11.00;;;;;11.21;100.00;99032.75;6296303;20;2789941;-70
2022/11/05 10:00:18;;;;;;;;;20.00;17.00;;;;;11.07;100.00;99028.41;6265074;20;2831582;-68
2022/11/05 10:03:04;;;;;;;;;20.00;12.50;;;;;11.05;100.00;99018.75;6266832;20;2817998;-68
2022/11/05 10:05:34;;;;;;;;;17.00;16.00;;;;;11.27;100.00;99029.63;6258516;20;3552392;-67
2022/11/05 10:08:21;;;;;;;;;15.00;14.00;;;;;11.29;100.00;99026.81;6266618;20;3534698;-69
2022/11/05 10:10:55;;;;;;;;;14.00;11.00;;;;;11.35;100.00;99029.06;6302887;20;2798223;-67
2022/11/05 10:13:53;;;;;;;;;12.67;12.67;;;;;11.52;100.00;99031.31;6268889;20;3505526;-67
2022/11/05 10:16:45;;;;;;;;;15.00;14.00;;;;;11.37;100.00;99019.03;6298365;20;2804504;-68
2022/11/05 10:19:24;;;;;;;;;18.00;16.50;;;;;11.27;100.00;99023.38;6269194;20;2829422;-68
2022/11/05 10:22:15;;;;;;;;;24.00;21.00;;;;;11.70;100.00;99018.28;6270764;20;2842068;-69
2022/11/05 10:24:49;;;;;;;;;11.00;11.00;;;;;11.82;100.00;99011.97;6272342;20;2796195;-68
2022/11/05 10:27:37;;;;;;;;;53.50;43.00;;;;;11.94;100.00;99006.63;6269770;20;2852333;-68
2022/11/05 10:30:06;;;;;;;;;7.00;7.00;;;;;11.57;100.00;99006.75;6270408;20;2729557;-67
2022/11/05 10:32:40;;;;;;;;;8.00;8.00;;;;;11.71;100.00;99013.75;6271751;20;2748307;-68
2022/11/05 10:35:17;;;;;;;;;8.00;8.00;;;;;11.78;100.00;99006.94;6268360;20;2748180;-65
2022/11/05 10:37:46;;;;;;;;;10.50;10.50;;;;;12.07;98.59;99019.00;6268385;20;2779488;-67
2022/11/05 10:40:50;;;;;;;;;9.50;9.50;;;;;12.12;99.07;99018.66;6269333;20;2761814;-67
2022/11/05 10:43:39;;;;;;;;;12.00;10.67;;;;;12.09;99.75;99032.34;6273528;20;2785734;-67
2022/11/05 10:46:27;;;;;;;;;9.33;9.33;;;;;12.14;99.38;99037.34;6297229;20;2771217;-67
2022/11/05 10:49:52;;;;;;;;;9.00;9.00;;;;;12.03;99.14;99039.06;6301490;20;2744028;-68
2022/11/05 10:52:25;;;;;;;;;10.00;9.00;;;;;12.04;99.13;99030.00;6272603;20;2756528;-68
2022/11/05 10:55:00;;;;;;;;;6.00;6.00;;;;;12.00;99.16;99023.13;6272469;20;2749332;-67
2022/11/05 10:57:30;;;;;;;;;9.00;7.00;;;;;11.85;99.14;99035.94;6270976;20;2728525;-66
2022/11/05 11:00:30;;;;;;;;;9.00;9.00;;;;;11.92;99.11;99040.88;6271859;20;2756874;-69
2022/11/05 11:03:03;;;;;;;;;12.50;11.00;;;;;12.02;98.91;99042.72;6272563;20;2797141;-68
2022/11/05 11:05:40;;;;;;;;;10.00;9.00;;;;;12.17;98.75;99048.75;6267832;20;2761779;-67
2022/11/05 11:08:10;;;;;;;;;10.00;10.00;;;;;12.42;97.81;99047.66;6268332;20;2787786;-68
2022/11/05 11:10:51;;;;;;;;;13.00;13.00;;;;;12.53;97.17;99046.78;6269704;20;2797237;-67
2022/11/05 11:13:27;;;;;;;;;8.00;8.00;;;;;12.68;96.98;99058.19;6271250;20;2748228;-67
2022/11/05 11:16:19;;;;;;;;;6.71;6.71;;;;;12.92;96.10;99047.25;6309052;20;3445043;-67
2022/11/05 11:19:00;;;;;;;;;9.57;9.57;;;;;13.48;95.30;99048.97;6344031;20;3511759;-68
2022/11/05 11:21:31;;;;;;;;;8.00;6.00;;;;;13.25;94.01;99038.25;6299723;20;2741978;-69
2022/11/05 11:24:05;;;;;;;;;14.00;14.00;;;;;13.46;93.87;99045.56;6273422;20;2812761;-68
2022/11/05 11:26:38;;;;;;;;;11.80;10.40;;;;;13.22;94.82;99043.91;6292412;20;2794033;-69
2022/11/05 11:29:25;;;;;;;;;14.00;12.00;;;;;12.96;94.48;99049.59;6270749;20;2800367;-69
2022/11/05 11:31:59;;;;;;;;;10.00;10.00;;;;;13.06;94.81;99046.13;6263747;20;2794237;-68
2022/11/05 11:34:35;;;;;;;;;6.00;6.00;;;;;12.72;95.06;99036.28;6301340;20;2738843;-69
2022/11/05 11:37:31;;;;;;;;;9.60;8.60;;;;;13.31;95.15;99036.91;6290696;20;2751342;-70
2022/11/05 11:40:30;;;;;;;;;9.71;8.86;;;;;12.91;94.38;99013.22;6312517;20;3493036;-67
2022/11/05 11:43:20;;;;;;;;;16.00;14.00;;;;;13.10;94.45;99031.41;6295762;20;3534774;-68
2022/11/05 11:45:53;;;;;;;;;8.00;6.50;;;;;12.93;94.26;99030.97;6273466;20;2740433;-67
2022/11/05 11:48:34;;;;;;;;;7.00;7.00;;;;;13.12;96.02;99032.16;6268701;20;2744252;-68
2022/11/05 11:51:43;;;;;;;;;9.29;8.00;;;;;13.03;95.72;99035.59;6313508;20;3475776;-70
2022/11/05 11:54:21;;;;;;;;;11.80;10.00;;;;;13.20;95.61;99032.38;6329592;20;2784654;-68
2022/11/05 11:56:55;;;;;;;;;13.33;11.00;;;;;13.12;95.08;99029.47;6274341;20;2787259;-67
2022/11/05 11:59:27;;;;;;;;;9.50;9.50;;;;;13.13;95.22;99039.25;6304386;20;2769303;-69
2022/11/05 12:02:51;;;;;;;;;7.00;7.00;;;;;12.94;95.73;99035.38;6276784;20;2746140;-68
2022/11/05 12:05:44;;;;;;;;;10.50;8.00;;;;;12.80;96.38;99038.34;6268840;20;2769062;-68
2022/11/05 12:09:26;;;;;;;;;7.50;7.00;;;;;12.56;96.27;99034.91;6278806;20;2748300;-69
2022/11/05 12:12:08;;;;;;;;;8.00;8.00;;;;;12.64;95.43;99054.03;6274533;20;2739897;-67